Time;durP1;ratioP1;P1;durP2;ratioP2;P2;SDS_P1;SDS_P2;PMS_P1;PMS_P2;Temp;Humidity;BMP_temperature;BMP_pressure;BME280_temperature;BME280_humidity;BME280_pressure;Samples;Min_cycle;Max_cycle;Signal;HPM_P1;HPM_P2
2022/01/14 00:02:04;;;;;;;16.25;8.00;;;;;;;;;;4999705;28;20108;-79
2022/01/14 00:04:31;;;;;;;14.00;7.05;;;;;;;;;;5000594;28;20121;-79
2022/01/14 00:06:57;;;;;;;13.25;7.47;;;;;;;;;;5002614;28;20026;-79
2022/01/14 00:09:25;;;;;;;11.73;6.43;;;;;;;;;;5005057;28;20062;-79
2022/01/14 00:11:56;;;;;;;12.63;6.93;;;;;;;;;;5005724;28;20038;-79
2022/01/14 00:14:36;;;;;;;11.23;6.38;;;;;;;;;;5002661;28;20045;-80
2022/01/14 00:17:03;;;;;;;12.98;6.28;;;;;;;;;;4994240;28;20015;-80
2022/01/14 00:19:29;;;;;;;13.20;6.80;;;;;;;;;;5005688;28;20023;-78
2022/01/14 00:21:55;;;;;;;13.75;7.32;;;;;;;;;;4998815;28;20030;-79
2022/01/14 00:32:24;;;;;;;12.75;7.20;;;;;;;;;;5004114;28;20090;-79
2022/01/14 00:34:50;;;;;;;13.98;6.47;;;;;;;;;;5003483;28;20030;-79
2022/01/14 00:37:17;;;;;;;12.18;7.07;;;;;;;;;;5005725;28;20032;-78
2022/01/14 00:39:43;;;;;;;13.25;7.07;;;;;;;;;;5003216;28;20027;-78
2022/01/14 00:42:11;;;;;;;13.23;7.60;;;;;;;;;;5004999;28;20086;-79
2022/01/14 00:44:37;;;;;;;13.52;7.60;;;;;;;;;;4992735;28;20035;-78
2022/01/14 00:47:05;;;;;;;14.73;7.93;;;;;;;;;;4988226;28;20023;-78
2022/01/14 00:49:31;;;;;;;15.15;7.57;;;;;;;;;;4989076;28;20043;-79
2022/01/14 00:51:57;;;;;;;13.13;7.00;;;;;;;;;;5006553;28;20038;-78
2022/01/14 00:54:25;;;;;;;12.55;6.78;;;;;;;;;;4990267;28;20027;-78
2022/01/14 00:59:37;;;;;;;13.55;6.80;;;;;;;;;;4990772;28;20046;-78
2022/01/14 01:02:03;;;;;;;12.18;7.13;;;;;;;;;;4989667;28;20098;-79
2022/01/14 01:04:33;;;;;;;14.30;7.80;;;;;;;;;;5002582;28;20018;-79
2022/01/14 01:07:01;;;;;;;11.82;7.10;;;;;;;;;;5002508;28;20034;-78
2022/01/14 01:09:29;;;;;;;13.38;8.35;;;;;;;;;;4992301;28;20099;-78
2022/01/14 01:12:12;;;;;;;14.02;7.18;;;;;;;;;;5007860;28;20057;-79
2022/01/14 01:14:45;;;;;;;14.85;6.75;;;;;;;;;;5002557;28;20033;-78
2022/01/14 01:17:12;;;;;;;14.00;8.13;;;;;;;;;;4995582;28;20444;-79
2022/01/14 01:19:38;;;;;;;16.38;8.98;;;;;;;;;;4993281;28;20110;-79
2022/01/14 01:22:04;;;;;;;13.80;7.00;;;;;;;;;;5002051;28;20049;-79
2022/01/14 01:24:30;;;;;;;14.15;7.95;;;;;;;;;;4989580;28;20041;-79
2022/01/14 01:26:57;;;;;;;14.35;7.30;;;;;;;;;;5006092;28;20054;-78
2022/01/14 01:31:49;;;;;;;13.48;7.43;;;;;;;;;;4989255;28;20043;-79
2022/01/14 01:34:17;;;;;;;13.80;7.13;;;;;;;;;;4999577;28;20023;-78
2022/01/14 01:36:45;;;;;;;15.75;9.02;;;;;;;;;;4997602;28;20042;-79
2022/01/14 01:39:13;;;;;;;14.55;8.13;;;;;;;;;;4985143;28;20027;-77
2022/01/14 01:41:41;;;;;;;12.80;6.43;;;;;;;;;;5003879;28;20030;-79
2022/01/14 01:44:08;;;;;;;12.95;7.30;;;;;;;;;;4994026;28;20026;-80
2022/01/14 01:46:37;;;;;;;15.75;6.75;;;;;;;;;;4991023;28;20022;-80
2022/01/14 01:49:04;;;;;;;13.60;7.15;;;;;;;;;;5003825;28;20402;-80
2022/01/14 01:51:31;;;;;;;12.65;7.20;;;;;;;;;;5003806;28;20038;-79
2022/01/14 01:53:57;;;;;;;13.75;7.75;;;;;;;;;;4998597;28;20033;-80
2022/01/14 01:56:23;;;;;;;11.13;6.13;;;;;;;;;;5003683;28;20023;-79
2022/01/14 01:58:49;;;;;;;12.57;6.85;;;;;;;;;;5005525;28;20022;-80
2022/01/14 02:01:16;;;;;;;11.80;6.72;;;;;;;;;;4987633;28;20027;-79
2022/01/14 02:03:42;;;;;;;12.63;5.80;;;;;;;;;;4999136;28;20030;-80
2022/01/14 02:06:09;;;;;;;11.75;5.47;;;;;;;;;;5013264;28;20038;-80
2022/01/14 02:08:35;;;;;;;11.57;6.00;;;;;;;;;;5004171;28;20026;-80
2022/01/14 02:11:01;;;;;;;11.52;6.03;;;;;;;;;;5002661;28;20056;-79
2022/01/14 02:13:30;;;;;;;11.10;5.85;;;;;;;;;;4988085;28;20019;-79
2022/01/14 02:23:53;;;;;;;9.98;5.30;;;;;;;;;;5001143;28;20049;-80
2022/01/14 02:26:20;;;;;;;9.93;5.40;;;;;;;;;;4990372;28;20022;-79
2022/01/14 02:28:47;;;;;;;11.15;6.05;;;;;;;;;;5004048;28;20073;-82
2022/01/14 02:31:13;;;;;;;11.85;6.28;;;;;;;;;;4997564;28;20026;-79
2022/01/14 02:33:39;;;;;;;11.98;5.90;;;;;;;;;;5004042;28;20121;-79
2022/01/14 02:36:06;;;;;;;9.65;4.95;;;;;;;;;;5003943;28;20033;-79
2022/01/14 02:38:32;;;;;;;10.85;5.65;;;;;;;;;;4991331;28;20019;-80
2022/01/14 02:40:58;;;;;;;10.80;5.03;;;;;;;;;;4988471;28;20039;-79
2022/01/14 02:43:26;;;;;;;11.45;6.13;;;;;;;;;;4986192;28;20019;-79
2022/01/14 02:45:54;;;;;;;9.73;5.13;;;;;;;;;;4986728;28;20038;-79
2022/01/14 02:48:28;;;;;;;11.75;6.32;;;;;;;;;;4996512;28;20023;-80
2022/01/14 02:50:59;;;;;;;11.13;5.43;;;;;;;;;;4984921;28;20022;-80
2022/01/14 02:53:30;;;;;;;9.18;5.43;;;;;;;;;;4986740;28;20042;-79
2022/01/14 02:55:57;;;;;;;10.65;5.18;;;;;;;;;;4986232;28;20019;-80
2022/01/14 02:58:25;;;;;;;11.57;6.05;;;;;;;;;;4992876;28;20049;-79
2022/01/14 03:00:52;;;;;;;9.10;4.78;;;;;;;;;;5001716;28;20034;-80
2022/01/14 03:03:22;;;;;;;12.90;5.65;;;;;;;;;;4991216;28;20482;-79
2022/01/14 03:05:49;;;;;;;11.30;5.50;;;;;;;;;;4995647;28;20393;-79
2022/01/14 03:08:16;;;;;;;11.70;5.90;;;;;;;;;;4992644;28;20392;-79
2022/01/14 03:10:42;;;;;;;9.63;5.28;;;;;;;;;;4991326;28;20030;-80
2022/01/14 03:13:08;;;;;;;11.95;6.15;;;;;;;;;;4985520;28;20050;-80
2022/01/14 03:15:34;;;;;;;11.30;6.35;;;;;;;;;;4984305;28;20053;-78
2022/01/14 03:18:01;;;;;;;11.27;5.55;;;;;;;;;;4991956;28;20018;-79
2022/01/14 03:20:45;;;;;;;10.48;5.60;;;;;;;;;;4982422;28;20018;-80
2022/01/14 03:23:13;;;;;;;11.05;5.25;;;;;;;;;;4989831;28;20182;-80
2022/01/14 03:25:48;;;;;;;13.00;6.13;;;;;;;;;;4996276;28;20113;-79
2022/01/14 03:28:25;;;;;;;12.45;5.63;;;;;;;;;;4991051;28;20099;-80
2022/01/14 03:30:52;;;;;;;13.15;6.38;;;;;;;;;;5000669;28;20088;-80
2022/01/14 03:33:20;;;;;;;10.02;4.93;;;;;;;;;;5002398;28;20652;-80
2022/01/14 03:35:46;;;;;;;11.52;5.60;;;;;;;;;;4994187;28;20397;-81
2022/01/14 03:38:12;;;;;;;10.55;4.65;;;;;;;;;;4999552;28;20034;-79
2022/01/14 03:40:39;;;;;;;9.90;5.07;;;;;;;;;;5003476;28;20022;-81
2022/01/14 03:43:06;;;;;;;9.68;4.75;;;;;;;;;;4992227;28;20023;-80
2022/01/14 03:45:32;;;;;;;11.20;5.90;;;;;;;;;;4991087;28;20033;-79
2022/01/14 03:47:58;;;;;;;11.32;5.32;;;;;;;;;;4987464;28;20022;-79
2022/01/14 03:50:25;;;;;;;10.73;5.97;;;;;;;;;;4991929;28;20034;-78
2022/01/14 03:52:51;;;;;;;10.30;5.28;;;;;;;;;;4987672;28;20102;-78
2022/01/14 03:55:17;;;;;;;8.40;4.90;;;;;;;;;;4989627;28;20080;-79
2022/01/14 03:57:43;;;;;;;10.45;4.30;;;;;;;;;;4998505;28;20474;-78
2022/01/14 04:00:10;;;;;;;9.52;4.65;;;;;;;;;;4986055;28;20030;-79
2022/01/14 04:02:36;;;;;;;10.73;5.50;;;;;;;;;;4985202;28;20030;-79
2022/01/14 04:05:02;;;;;;;8.63;4.18;;;;;;;;;;5002682;28;20031;-79
2022/01/14 04:07:31;;;;;;;8.70;4.20;;;;;;;;;;4995365;28;20027;-78
2022/01/14 04:09:57;;;;;;;10.45;4.60;;;;;;;;;;5008157;28;20031;-80
2022/01/14 04:12:43;;;;;;;9.50;5.07;;;;;;;;;;5002835;28;20037;-80
2022/01/14 04:17:54;;;;;;;9.98;4.70;;;;;;;;;;4990901;28;20038;-79
2022/01/14 04:20:20;;;;;;;10.35;4.55;;;;;;;;;;4991363;28;20081;-79
2022/01/14 04:22:48;;;;;;;8.52;5.07;;;;;;;;;;4986947;28;20034;-79
2022/01/14 04:25:14;;;;;;;9.93;4.53;;;;;;;;;;5003316;28;20098;-79
2022/01/14 04:27:43;;;;;;;9.75;5.07;;;;;;;;;;4986840;28;20042;-78
2022/01/14 04:30:10;;;;;;;8.98;4.53;;;;;;;;;;5002202;28;20026;-81
2022/01/14 04:32:36;;;;;;;9.50;4.38;;;;;;;;;;4996790;28;20019;-80
2022/01/14 04:35:03;;;;;;;10.07;4.50;;;;;;;;;;5006706;28;20037;-80
2022/01/14 04:37:29;;;;;;;9.85;4.50;;;;;;;;;;5006099;28;20086;-80
2022/01/14 04:39:55;;;;;;;9.38;4.63;;;;;;;;;;5005851;28;20035;-79
2022/01/14 04:42:22;;;;;;;9.70;5.22;;;;;;;;;;4997785;28;20042;-79
2022/01/14 04:44:53;;;;;;;9.55;4.90;;;;;;;;;;4997356;28;20022;-81
2022/01/14 04:47:31;;;;;;;8.63;4.25;;;;;;;;;;4998260;28;20045;-81
2022/01/14 04:49:58;;;;;;;12.07;5.60;;;;;;;;;;5005298;28;20054;-81
2022/01/14 04:52:24;;;;;;;9.18;5.00;;;;;;;;;;5003797;28;20125;-79
2022/01/14 04:54:50;;;;;;;12.43;6.00;;;;;;;;;;4987121;28;20646;-79
2022/01/14 04:57:16;;;;;;;10.82;5.50;;;;;;;;;;5000585;28;20034;-79
2022/01/14 04:59:46;;;;;;;11.93;5.63;;;;;;;;;;5004123;28;20065;-79
2022/01/14 05:02:13;;;;;;;12.77;5.70;;;;;;;;;;4994751;28;20023;-79
2022/01/14 05:04:41;;;;;;;11.90;5.57;;;;;;;;;;5005802;28;20022;-78
2022/01/14 05:07:11;;;;;;;12.43;5.97;;;;;;;;;;5000928;28;20098;-79
2022/01/14 05:09:42;;;;;;;11.07;5.47;;;;;;;;;;4998737;28;20022;-78
2022/01/14 05:12:10;;;;;;;11.68;5.82;;;;;;;;;;5005072;28;20030;-78
2022/01/14 05:14:37;;;;;;;9.30;5.22;;;;;;;;;;5000172;28;20496;-78
2022/01/14 05:17:03;;;;;;;11.30;5.68;;;;;;;;;;4997898;28;20424;-78
2022/01/14 05:19:30;;;;;;;10.82;6.30;;;;;;;;;;5005349;28;20030;-79
2022/01/14 05:21:56;;;;;;;11.32;5.72;;;;;;;;;;5003611;28;20023;-80
2022/01/14 05:24:24;;;;;;;11.68;5.72;;;;;;;;;;5004303;28;20046;-79
2022/01/14 05:26:50;;;;;;;10.45;5.32;;;;;;;;;;5004073;28;20029;-79
2022/01/14 05:29:19;;;;;;;9.30;4.55;;;;;;;;;;4999983;28;20477;-78
2022/01/14 05:31:48;;;;;;;9.48;4.95;;;;;;;;;;4997884;28;20084;-80
2022/01/14 05:34:14;;;;;;;11.98;5.63;;;;;;;;;;4986158;28;20027;-80
2022/01/14 05:36:40;;;;;;;11.18;5.97;;;;;;;;;;4985526;28;20022;-80
2022/01/14 05:39:07;;;;;;;13.13;6.28;;;;;;;;;;4995774;28;20035;-78
2022/01/14 05:41:34;;;;;;;10.02;5.63;;;;;;;;;;4991608;28;20033;-79
2022/01/14 05:44:01;;;;;;;10.93;5.35;;;;;;;;;;5000879;28;20125;-80
2022/01/14 05:46:27;;;;;;;10.45;5.40;;;;;;;;;;4993249;28;20030;-79
2022/01/14 05:48:54;;;;;;;10.75;5.45;;;;;;;;;;4997243;28;20057;-80
2022/01/14 05:51:20;;;;;;;11.98;5.60;;;;;;;;;;4991694;28;20034;-79
2022/01/14 05:53:46;;;;;;;11.25;6.00;;;;;;;;;;4985397;28;20058;-79
2022/01/14 05:56:12;;;;;;;10.38;5.63;;;;;;;;;;4988144;28;20030;-79
2022/01/14 05:58:38;;;;;;;12.70;5.90;;;;;;;;;;4988062;28;20109;-79
2022/01/14 06:01:04;;;;;;;13.48;6.85;;;;;;;;;;4984565;28;20110;-80
2022/01/14 06:03:30;;;;;;;10.55;5.70;;;;;;;;;;4990819;28;20041;-81
2022/01/14 06:05:56;;;;;;;9.25;5.43;;;;;;;;;;4994920;28;20023;-81
2022/01/14 06:08:23;;;;;;;11.90;6.18;;;;;;;;;;4996035;28;20034;-80
2022/01/14 06:10:49;;;;;;;12.15;6.32;;;;;;;;;;4990920;28;20044;-80
2022/01/14 06:13:15;;;;;;;10.65;5.93;;;;;;;;;;4991152;28;20066;-80
2022/01/14 06:15:41;;;;;;;10.35;5.82;;;;;;;;;;4997164;28;20026;-81
2022/01/14 06:18:07;;;;;;;9.35;5.28;;;;;;;;;;4995472;28;20702;-81
2022/01/14 06:20:34;;;;;;;12.10;6.55;;;;;;;;;;4989822;28;20030;-79
2022/01/14 06:23:02;;;;;;;12.52;7.63;;;;;;;;;;4999829;28;20023;-78
2022/01/14 06:25:28;;;;;;;12.18;6.85;;;;;;;;;;4988261;28;20041;-79
2022/01/14 06:27:55;;;;;;;12.45;6.13;;;;;;;;;;4993250;28;20090;-79
2022/01/14 06:30:21;;;;;;;12.98;6.28;;;;;;;;;;4992510;28;20041;-81
2022/01/14 06:32:47;;;;;;;11.75;6.75;;;;;;;;;;4992440;28;20101;-80
2022/01/14 06:35:14;;;;;;;12.07;6.45;;;;;;;;;;4993495;28;20165;-79
2022/01/14 06:37:41;;;;;;;11.63;5.93;;;;;;;;;;4994992;28;20018;-78
2022/01/14 06:40:07;;;;;;;12.88;6.70;;;;;;;;;;4993791;28;20027;-78
2022/01/14 06:42:34;;;;;;;13.95;6.88;;;;;;;;;;5001389;28;20037;-78
2022/01/14 06:45:00;;;;;;;10.43;5.68;;;;;;;;;;4984285;28;20027;-77
2022/01/14 06:47:26;;;;;;;12.52;6.65;;;;;;;;;;4981546;28;20058;-77
2022/01/14 06:49:52;;;;;;;13.10;6.88;;;;;;;;;;4983929;28;20071;-78
2022/01/14 06:52:18;;;;;;;11.98;6.43;;;;;;;;;;4982198;28;20050;-78
2022/01/14 06:54:45;;;;;;;12.38;6.75;;;;;;;;;;4982231;28;20041;-78
2022/01/14 06:57:11;;;;;;;12.52;6.20;;;;;;;;;;4985346;28;20058;-79
2022/01/14 06:59:37;;;;;;;11.48;6.05;;;;;;;;;;4994067;28;20034;-78
2022/01/14 07:02:03;;;;;;;11.50;5.82;;;;;;;;;;4997762;28;20041;-78
2022/01/14 07:04:29;;;;;;;10.05;5.60;;;;;;;;;;4994441;28;20018;-78
2022/01/14 07:06:55;;;;;;;11.30;6.13;;;;;;;;;;4980960;28;20508;-78
2022/01/14 07:09:22;;;;;;;11.63;5.55;;;;;;;;;;4980057;28;20521;-77
2022/01/14 07:11:53;;;;;;;10.45;5.53;;;;;;;;;;4996356;28;20640;-78
2022/01/14 07:14:19;;;;;;;11.80;5.78;;;;;;;;;;4994197;28;20101;-78
2022/01/14 07:16:47;;;;;;;10.75;5.93;;;;;;;;;;4998714;28;20422;-77
2022/01/14 07:19:13;;;;;;;9.73;5.43;;;;;;;;;;4983946;28;20027;-78
2022/01/14 07:21:40;;;;;;;10.50;5.70;;;;;;;;;;4989827;28;20489;-78
2022/01/14 07:24:06;;;;;;;8.68;4.53;;;;;;;;;;4994242;28;20076;-78
2022/01/14 07:26:33;;;;;;;9.10;5.38;;;;;;;;;;5005205;28;20101;-78
2022/01/14 07:28:59;;;;;;;10.65;5.75;;;;;;;;;;5000222;28;20084;-79
2022/01/14 07:31:25;;;;;;;8.60;4.70;;;;;;;;;;4990101;28;20030;-78
2022/01/14 07:33:51;;;;;;;8.05;4.90;;;;;;;;;;4997964;28;20018;-77
2022/01/14 07:36:17;;;;;;;9.80;5.15;;;;;;;;;;4994015;28;20626;-77
2022/01/14 07:38:43;;;;;;;9.55;6.95;;;;;;;;;;4994032;28;20034;-77
2022/01/14 07:41:09;;;;;;;11.13;9.18;;;;;;;;;;4987500;28;20025;-79
2022/01/14 07:43:36;;;;;;;9.40;5.05;;;;;;;;;;4993668;28;20105;-77
2022/01/14 07:46:02;;;;;;;9.32;4.95;;;;;;;;;;4986930;28;20067;-79
2022/01/14 07:48:29;;;;;;;8.77;4.70;;;;;;;;;;4982391;28;20042;-80
2022/01/14 07:51:19;;;;;;;9.60;6.20;;;;;;;;;;4996203;28;20049;-80
2022/01/14 07:53:46;;;;;;;8.02;4.30;;;;;;;;;;4982884;28;20529;-81
2022/01/14 07:56:14;;;;;;;9.18;5.00;;;;;;;;;;4991108;28;20392;-80
2022/01/14 07:58:41;;;;;;;7.95;4.60;;;;;;;;;;4999300;28;20562;-80
2022/01/14 08:01:08;;;;;;;9.82;4.57;;;;;;;;;;4983040;28;20027;-81
2022/01/14 08:03:35;;;;;;;9.73;5.00;;;;;;;;;;5003244;28;20014;-81
2022/01/14 08:06:03;;;;;;;8.50;4.28;;;;;;;;;;5002218;28;20135;-81
2022/01/14 08:08:30;;;;;;;9.43;4.40;;;;;;;;;;5003754;28;20018;-79
2022/01/14 08:10:58;;;;;;;7.38;3.63;;;;;;;;;;5003515;28;20400;-82
2022/01/14 08:13:24;;;;;;;11.30;4.53;;;;;;;;;;5000234;28;20064;-80
2022/01/14 08:15:50;;;;;;;8.73;4.45;;;;;;;;;;4983669;28;20106;-79
2022/01/14 08:18:16;;;;;;;9.00;4.97;;;;;;;;;;5001385;28;20164;-78
2022/01/14 08:20:42;;;;;;;9.10;4.60;;;;;;;;;;4998415;28;20372;-78
2022/01/14 08:23:08;;;;;;;7.95;4.35;;;;;;;;;;4983090;28;20023;-80
2022/01/14 08:25:34;;;;;;;9.95;5.47;;;;;;;;;;4994156;28;20026;-78
2022/01/14 08:28:00;;;;;;;11.27;5.65;;;;;;;;;;4991638;28;20035;-77
2022/01/14 08:30:27;;;;;;;9.48;5.20;;;;;;;;;;4995387;28;20038;-78
2022/01/14 08:32:53;;;;;;;10.65;6.38;;;;;;;;;;4984940;28;20027;-79
2022/01/14 08:35:19;;;;;;;9.23;5.10;;;;;;;;;;4986077;28;20042;-79
2022/01/14 08:37:45;;;;;;;10.07;5.53;;;;;;;;;;4982027;28;20126;-79
2022/01/14 08:40:11;;;;;;;11.13;6.65;;;;;;;;;;4982268;28;20525;-78
2022/01/14 08:42:37;;;;;;;11.00;6.50;;;;;;;;;;4982693;28;20054;-80
2022/01/14 08:45:04;;;;;;;11.30;5.70;;;;;;;;;;4985116;28;20035;-79
2022/01/14 08:47:30;;;;;;;11.77;5.90;;;;;;;;;;4979244;28;20027;-79
2022/01/14 08:49:57;;;;;;;9.25;5.47;;;;;;;;;;4984754;28;20436;-78
2022/01/14 08:52:23;;;;;;;13.13;6.10;;;;;;;;;;4999986;28;20046;-79
2022/01/14 08:54:57;;;;;;;10.88;6.43;;;;;;;;;;4983983;28;20042;-79
2022/01/14 08:57:23;;;;;;;12.25;7.25;;;;;;;;;;4997004;28;20026;-78
2022/01/14 08:59:49;;;;;;;11.85;6.63;;;;;;;;;;4981332;28;20525;-81
2022/01/14 09:02:15;;;;;;;9.70;6.47;;;;;;;;;;4980598;28;20034;-80
2022/01/14 09:04:41;;;;;;;12.73;6.60;;;;;;;;;;4995598;28;20508;-79
2022/01/14 09:07:07;;;;;;;13.02;6.80;;;;;;;;;;4997783;28;20111;-78
2022/01/14 09:09:33;;;;;;;10.63;6.13;;;;;;;;;;4981179;28;20038;-79
2022/01/14 09:12:00;;;;;;;14.15;6.55;;;;;;;;;;4980357;28;20114;-78
2022/01/14 09:14:26;;;;;;;11.55;6.55;;;;;;;;;;4981740;28;20412;-81
2022/01/14 09:16:52;;;;;;;14.07;7.35;;;;;;;;;;4978629;28;20027;-79
2022/01/14 09:19:20;;;;;;;11.73;6.22;;;;;;;;;;4979736;28;20022;-78
2022/01/14 09:21:46;;;;;;;11.70;6.15;;;;;;;;;;4981451;28;20031;-78
2022/01/14 09:24:12;;;;;;;15.20;7.45;;;;;;;;;;4981047;28;20095;-80
2022/01/14 09:26:39;;;;;;;16.67;7.20;;;;;;;;;;4982032;28;20541;-80
2022/01/14 09:29:05;;;;;;;13.50;6.55;;;;;;;;;;4995635;28;20034;-79
2022/01/14 09:31:32;;;;;;;15.43;7.93;;;;;;;;;;4995590;28;20054;-78
2022/01/14 09:33:58;;;;;;;19.48;7.18;;;;;;;;;;4982291;28;20034;-77
2022/01/14 09:36:24;;;;;;;13.80;7.38;;;;;;;;;;4999249;28;20026;-77
2022/01/14 09:38:50;;;;;;;15.07;6.78;;;;;;;;;;4999223;28;20400;-79
2022/01/14 09:41:18;;;;;;;16.88;8.88;;;;;;;;;;4999792;28;20026;-79
2022/01/14 09:43:45;;;;;;;13.50;7.68;;;;;;;;;;5001371;28;20057;-79
2022/01/14 09:46:12;;;;;;;12.70;7.05;;;;;;;;;;4998838;28;20076;-79
2022/01/14 09:48:39;;;;;;;14.18;7.32;;;;;;;;;;4998251;28;20038;-79
2022/01/14 09:51:05;;;;;;;11.95;6.70;;;;;;;;;;4996530;28;20038;-78
2022/01/14 09:53:32;;;;;;;15.30;7.13;;;;;;;;;;4995378;28;20039;-79
2022/01/14 09:55:59;;;;;;;12.25;6.68;;;;;;;;;;4981884;28;20031;-80
2022/01/14 09:58:26;;;;;;;14.15;7.68;;;;;;;;;;4993280;28;20041;-78
2022/01/14 10:01:05;;;;;;;12.32;6.35;;;;;;;;;;5000382;28;20023;-82
2022/01/14 10:03:32;;;;;;;12.30;6.50;;;;;;;;;;4995514;28;20057;-79
2022/01/14 10:05:58;;;;;;;14.23;7.60;;;;;;;;;;4992984;28;20383;-80
2022/01/14 10:08:26;;;;;;;12.70;7.78;;;;;;;;;;4987599;28;20031;-79
2022/01/14 10:10:58;;;;;;;11.68;6.85;;;;;;;;;;4980183;28;20029;-79
2022/01/14 10:13:26;;;;;;;17.52;8.07;;;;;;;;;;4984278;28;20400;-79
2022/01/14 10:16:02;;;;;;;12.20;6.57;;;;;;;;;;4999129;28;20092;-80
2022/01/14 10:18:30;;;;;;;9.98;5.30;;;;;;;;;;4999115;28;20014;-79
2022/01/14 10:21:01;;;;;;;12.98;7.35;;;;;;;;;;4993172;28;20023;-79
2022/01/14 10:23:40;;;;;;;11.82;6.38;;;;;;;;;;4997745;28;20061;-79
2022/01/14 10:26:06;;;;;;;23.95;7.82;;;;;;;;;;4984465;28;20031;-80
2022/01/14 10:28:32;;;;;;;13.20;5.93;;;;;;;;;;5000439;28;20034;-80
2022/01/14 10:31:00;;;;;;;10.63;5.95;;;;;;;;;;4999550;28;20389;-79
2022/01/14 10:33:30;;;;;;;11.80;6.40;;;;;;;;;;4992163;28;20031;-77
2022/01/14 10:35:56;;;;;;;11.32;6.40;;;;;;;;;;4985266;28;20023;-77
2022/01/14 10:38:23;;;;;;;11.23;5.68;;;;;;;;;;4986759;28;20019;-78
2022/01/14 10:40:51;;;;;;;9.27;5.38;;;;;;;;;;4999402;28;20030;-79
2022/01/14 10:43:19;;;;;;;8.57;4.95;;;;;;;;;;4998015;28;20038;-78
2022/01/14 10:45:46;;;;;;;14.45;6.47;;;;;;;;;;4993162;28;20033;-78
2022/01/14 10:48:14;;;;;;;9.57;4.90;;;;;;;;;;4995194;28;20121;-79
2022/01/14 10:50:41;;;;;;;8.63;4.72;;;;;;;;;;4994646;28;20033;-79
2022/01/14 10:53:23;;;;;;;10.15;5.65;;;;;;;;;;4995363;28;20035;-79
2022/01/14 10:56:09;;;;;;;9.23;4.72;;;;;;;;;;4985898;28;20026;-79
2022/01/14 10:58:36;;;;;;;9.68;4.82;;;;;;;;;;4987295;28;20019;-80
2022/01/14 11:01:05;;;;;;;9.77;5.00;;;;;;;;;;5000405;28;20018;-79
2022/01/14 11:03:40;;;;;;;8.95;5.07;;;;;;;;;;4994335;28;20034;-79
2022/01/14 11:06:15;;;;;;;9.13;5.03;;;;;;;;;;5001137;28;20030;-77
2022/01/14 11:08:41;;;;;;;8.77;4.55;;;;;;;;;;4995242;28;20030;-76
2022/01/14 11:11:07;;;;;;;9.32;4.18;;;;;;;;;;4989097;28;20023;-77
2022/01/14 11:13:34;;;;;;;9.82;4.60;;;;;;;;;;4999794;28;20045;-78
2022/01/14 11:16:00;;;;;;;9.10;4.57;;;;;;;;;;4998916;28;20038;-77
2022/01/14 11:18:26;;;;;;;7.88;4.40;;;;;;;;;;4997136;28;20029;-79
2022/01/14 11:23:38;;;;;;;8.52;4.03;;;;;;;;;;4999193;28;20425;-78
2022/01/14 11:26:08;;;;;;;8.13;4.70;;;;;;;;;;4982569;28;20027;-79
2022/01/14 11:28:35;;;;;;;10.73;5.07;;;;;;;;;;4989383;28;20501;-78
2022/01/14 11:31:21;;;;;;;7.65;4.10;;;;;;;;;;4996676;28;20034;-79
2022/01/14 11:33:47;;;;;;;7.38;3.88;;;;;;;;;;4991650;28;20493;-81
2022/01/14 11:36:13;;;;;;;8.10;4.22;;;;;;;;;;4989995;28;20026;-79
2022/01/14 11:38:49;;;;;;;9.15;4.60;;;;;;;;;;4994530;28;20081;-79
2022/01/14 11:41:16;;;;;;;7.43;4.13;;;;;;;;;;4987878;28;20481;-80
2022/01/14 11:43:44;;;;;;;10.18;5.22;;;;;;;;;;4985041;28;20484;-79
2022/01/14 11:46:12;;;;;;;7.45;4.40;;;;;;;;;;4994836;28;20034;-79
2022/01/14 11:48:45;;;;;;;6.75;3.70;;;;;;;;;;4995647;28;20027;-78
2022/01/14 11:51:15;;;;;;;9.55;3.85;;;;;;;;;;4994876;28;20026;-79
2022/01/14 11:53:48;;;;;;;6.70;3.47;;;;;;;;;;4992273;28;20050;-78
2022/01/14 11:56:44;;;;;;;7.22;4.07;;;;;;;;;;4999160;28;20033;-78
2022/01/14 11:59:20;;;;;;;7.05;3.58;;;;;;;;;;4985374;28;20042;-79
2022/01/14 12:01:47;;;;;;;9.82;4.32;;;;;;;;;;4999129;28;20027;-80
2022/01/14 12:04:14;;;;;;;5.90;3.10;;;;;;;;;;4987345;28;20174;-80
2022/01/14 12:06:54;;;;;;;6.30;3.20;;;;;;;;;;4987441;28;20493;-80
2022/01/14 12:09:24;;;;;;;7.30;3.60;;;;;;;;;;5010204;28;20400;-79
2022/01/14 12:12:08;;;;;;;8.13;3.38;;;;;;;;;;4986909;28;20034;-80
2022/01/14 12:14:45;;;;;;;6.78;3.50;;;;;;;;;;4981141;28;20057;-78
2022/01/14 12:17:13;;;;;;;6.88;3.38;;;;;;;;;;4982979;28;20010;-80
2022/01/14 12:19:39;;;;;;;7.80;3.17;;;;;;;;;;4990461;28;20453;-79
2022/01/14 12:22:06;;;;;;;6.63;3.10;;;;;;;;;;4994974;28;20117;-80
2022/01/14 12:24:33;;;;;;;7.00;3.17;;;;;;;;;;4997484;28;20038;-79
2022/01/14 12:27:11;;;;;;;6.72;3.42;;;;;;;;;;4981670;28;20035;-80
2022/01/14 12:29:39;;;;;;;5.43;3.03;;;;;;;;;;4987441;28;20030;-80
2022/01/14 12:32:06;;;;;;;7.05;3.75;;;;;;;;;;4981790;28;20026;-79
2022/01/14 12:34:37;;;;;;;7.15;2.92;;;;;;;;;;4998260;28;20106;-79
2022/01/14 12:37:04;;;;;;;5.88;3.30;;;;;;;;;;4996598;28;20026;-79
2022/01/14 12:39:31;;;;;;;7.15;3.38;;;;;;;;;;4984385;28;20027;-79
2022/01/14 12:41:58;;;;;;;7.10;3.40;;;;;;;;;;4979612;28;20089;-79
2022/01/14 12:44:24;;;;;;;6.82;3.67;;;;;;;;;;4979083;28;20393;-79
2022/01/14 12:47:01;;;;;;;6.43;3.22;;;;;;;;;;4987081;28;20492;-79
2022/01/14 12:49:30;;;;;;;6.85;3.47;;;;;;;;;;4983541;28;20492;-81
2022/01/14 12:52:07;;;;;;;6.75;3.33;;;;;;;;;;4995177;28;20046;-79
2022/01/14 12:54:35;;;;;;;8.35;3.65;;;;;;;;;;4998083;28;20046;-80
2022/01/14 12:57:02;;;;;;;6.60;3.13;;;;;;;;;;4997897;28;20050;-79
2022/01/14 12:59:29;;;;;;;5.78;3.05;;;;;;;;;;5000331;28;20026;-80
2022/01/14 13:01:55;;;;;;;7.25;3.30;;;;;;;;;;5016337;28;20057;-79
2022/01/14 13:04:23;;;;;;;7.15;2.97;;;;;;;;;;5000052;28;20080;-83
2022/01/14 13:06:51;;;;;;;7.68;3.03;;;;;;;;;;4998569;28;20524;-78
2022/01/14 13:09:29;;;;;;;6.20;3.20;;;;;;;;;;5001029;28;20089;-78
2022/01/14 13:11:58;;;;;;;6.97;3.22;;;;;;;;;;4999774;28;20117;-80
2022/01/14 13:14:34;;;;;;;7.20;3.78;;;;;;;;;;4998749;28;20142;-79
2022/01/14 13:17:02;;;;;;;7.22;3.40;;;;;;;;;;4984157;28;20043;-79
2022/01/14 13:19:31;;;;;;;7.15;3.47;;;;;;;;;;4988919;28;20046;-80
2022/01/14 13:21:58;;;;;;;7.72;3.80;;;;;;;;;;4988815;28;20039;-80
2022/01/14 13:24:29;;;;;;;6.05;3.10;;;;;;;;;;4987509;28;20261;-80
2022/01/14 13:27:04;;;;;;;8.07;3.95;;;;;;;;;;4996314;28;20050;-79
2022/01/14 13:29:44;;;;;;;6.78;3.22;;;;;;;;;;4998637;28;20034;-79
2022/01/14 13:32:10;;;;;;;7.35;3.78;;;;;;;;;;4999775;28;20666;-79
2022/01/14 13:34:37;;;;;;;7.20;3.30;;;;;;;;;;5000726;28;20080;-78
2022/01/14 13:37:04;;;;;;;7.65;3.65;;;;;;;;;;5001404;28;20045;-78
2022/01/14 13:39:30;;;;;;;7.95;3.50;;;;;;;;;;4992684;28;20023;-78
2022/01/14 13:41:56;;;;;;;8.32;3.80;;;;;;;;;;4996561;28;20027;-78
2022/01/14 13:44:30;;;;;;;9.20;4.07;;;;;;;;;;4985584;28;20035;-79
2022/01/14 13:47:00;;;;;;;7.10;3.40;;;;;;;;;;5013837;28;20054;-80
2022/01/14 13:49:26;;;;;;;8.18;4.07;;;;;;;;;;4997295;28;20026;-79
2022/01/14 13:58:27;;;;;;;7.20;3.17;;;;;;;;;;5010462;28;20053;-79
2022/01/14 14:00:55;;;;;;;7.68;3.90;;;;;;;;;;5017815;28;20042;-81
2022/01/14 14:03:26;;;;;;;6.97;3.47;;;;;;;;;;5015570;28;20026;-79
2022/01/14 14:05:59;;;;;;;7.72;3.70;;;;;;;;;;5001458;28;20019;-79
2022/01/14 14:08:42;;;;;;;6.57;3.33;;;;;;;;;;5000052;28;20046;-79
2022/01/14 14:16:44;;;;;;;10.15;3.63;;;;;;;;;;4984637;28;20030;-78
2022/01/14 14:19:11;;;;;;;9.02;4.60;;;;;;;;;;4998784;28;20026;-78
2022/01/14 14:21:39;;;;;;;9.20;4.70;;;;;;;;;;5009326;28;20034;-78
2022/01/14 14:24:08;;;;;;;11.32;4.88;;;;;;;;;;4984877;28;20265;-79
2022/01/14 14:26:35;;;;;;;13.13;5.43;;;;;;;;;;4998147;28;20022;-79
2022/01/14 14:29:05;;;;;;;10.75;5.50;;;;;;;;;;4981235;28;20031;-79
2022/01/14 14:31:32;;;;;;;7.70;4.63;;;;;;;;;;5000772;28;20022;-79
2022/01/14 14:33:58;;;;;;;7.20;4.25;;;;;;;;;;5002365;28;20049;-79
2022/01/14 14:36:27;;;;;;;10.05;4.70;;;;;;;;;;5001090;28;20030;-79
2022/01/14 14:38:54;;;;;;;8.75;4.07;;;;;;;;;;4997460;28;20066;-79
2022/01/14 14:41:20;;;;;;;7.95;4.03;;;;;;;;;;4995768;28;20019;-79
2022/01/14 14:43:46;;;;;;;9.52;4.53;;;;;;;;;;4996979;28;20027;-81
2022/01/14 14:46:12;;;;;;;8.75;4.13;;;;;;;;;;4983595;28;20027;-80
2022/01/14 14:48:39;;;;;;;8.80;4.03;;;;;;;;;;4984058;28;20496;-80
2022/01/14 14:51:05;;;;;;;11.90;4.50;;;;;;;;;;4999811;28;20033;-80
2022/01/14 14:53:31;;;;;;;8.50;3.85;;;;;;;;;;4993672;28;20027;-81
2022/01/14 14:55:57;;;;;;;9.23;4.30;;;;;;;;;;5001331;28;20034;-80
2022/01/14 14:58:23;;;;;;;8.38;5.30;;;;;;;;;;5003283;28;20026;-80
2022/01/14 15:00:49;;;;;;;8.38;4.68;;;;;;;;;;5000084;28;20065;-80
2022/01/14 15:03:16;;;;;;;10.15;4.63;;;;;;;;;;4999988;28;20033;-80
2022/01/14 15:05:42;;;;;;;8.70;4.97;;;;;;;;;;5001773;28;20049;-80
2022/01/14 15:08:08;;;;;;;7.60;4.07;;;;;;;;;;5002292;28;20029;-80
2022/01/14 15:10:34;;;;;;;9.40;4.22;;;;;;;;;;5002285;28;20030;-80
2022/01/14 15:13:01;;;;;;;7.57;4.20;;;;;;;;;;5001362;28;20034;-81
2022/01/14 15:18:19;;;;;;;7.78;4.22;;;;;;;;;;4985974;28;20031;-79
2022/01/14 15:20:45;;;;;;;8.75;3.88;;;;;;;;;;5021329;28;20029;-79
2022/01/14 15:23:12;;;;;;;7.80;4.15;;;;;;;;;;4991862;28;20031;-79